sensor_id;sensor_type;location;lat;lon;timestamp;P1;durP1;ratioP1;P2;durP2;ratioP2
67508;SDS011;54354;44.724;11.284;2023-07-30T00:01:32;5.53;;;4.35;;
67508;SDS011;54354;44.724;11.284;2023-07-30T00:03:58;7.70;;;4.68;;
67508;SDS011;54354;44.724;11.284;2023-07-30T00:06:24;8.77;;;4.20;;
67508;SDS011;54354;44.724;11.284;2023-07-30T00:08:49;8.63;;;4.40;;
67508;SDS011;54354;44.724;11.284;2023-07-30T00:11:15;9.35;;;4.30;;
67508;SDS011;54354;44.724;11.284;2023-07-30T00:13:41;7.75;;;3.67;;
67508;SDS011;54354;44.724;11.284;2023-07-30T00:16:06;9.07;;;3.95;;
67508;SDS011;54354;44.724;11.284;2023-07-30T00:18:32;8.25;;;4.03;;
67508;SDS011;54354;44.724;11.284;2023-07-30T00:20:57;8.27;;;3.90;;
67508;SDS011;54354;44.724;11.284;2023-07-30T00:23:23;6.95;;;3.65;;
67508;SDS011;54354;44.724;11.284;2023-07-30T00:25:48;8.10;;;3.90;;
67508;SDS011;54354;44.724;11.284;2023-07-30T00:28:14;6.03;;;4.10;;
67508;SDS011;54354;44.724;11.284;2023-07-30T00:30:39;5.70;;;3.70;;
67508;SDS011;54354;44.724;11.284;2023-07-30T00:33:05;9.88;;;3.70;;
67508;SDS011;54354;44.724;11.284;2023-07-30T00:35:30;10.00;;;3.70;;
67508;SDS011;54354;44.724;11.284;2023-07-30T00:37:56;6.13;;;3.80;;
67508;SDS011;54354;44.724;11.284;2023-07-30T00:40:22;8.15;;;3.75;;
67508;SDS011;54354;44.724;11.284;2023-07-30T00:42:48;9.35;;;3.60;;
67508;SDS011;54354;44.724;11.284;2023-07-30T00:45:13;8.45;;;3.60;;
67508;SDS011;54354;44.724;11.284;2023-07-30T00:47:39;5.43;;;3.65;;
67508;SDS011;54354;44.724;11.284;2023-07-30T00:50:06;6.00;;;3.45;;
67508;SDS011;54354;44.724;11.284;2023-07-30T00:52:33;7.43;;;3.38;;
67508;SDS011;54354;44.724;11.284;2023-07-30T00:55:01;6.43;;;3.28;;
67508;SDS011;54354;44.724;11.284;2023-07-30T00:57:28;5.47;;;3.08;;
67508;SDS011;54354;44.724;11.284;2023-07-30T00:59:55;7.00;;;3.50;;
67508;SDS011;54354;44.724;11.284;2023-07-30T01:02:21;5.28;;;3.33;;
67508;SDS011;54354;44.724;11.284;2023-07-30T01:04:47;6.07;;;2.90;;
67508;SDS011;54354;44.724;11.284;2023-07-30T01:07:12;4.97;;;3.30;;
67508;SDS011;54354;44.724;11.284;2023-07-30T01:09:38;4.65;;;3.28;;
67508;SDS011;54354;44.724;11.284;2023-07-30T01:12:04;5.05;;;2.97;;
67508;SDS011;54354;44.724;11.284;2023-07-30T01:14:31;5.03;;;3.33;;
67508;SDS011;54354;44.724;11.284;2023-07-30T01:16:58;7.95;;;2.80;;
67508;SDS011;54354;44.724;11.284;2023-07-30T01:19:23;3.80;;;2.75;;
67508;SDS011;54354;44.724;11.284;2023-07-30T01:21:49;6.72;;;2.65;;
67508;SDS011;54354;44.724;11.284;2023-07-30T01:24:15;7.22;;;2.33;;
67508;SDS011;54354;44.724;11.284;2023-07-30T01:29:14;4.60;;;2.60;;
67508;SDS011;54354;44.724;11.284;2023-07-30T01:31:46;8.50;;;2.30;;
67508;SDS011;54354;44.724;11.284;2023-07-30T01:34:20;7.10;;;2.28;;
67508;SDS011;54354;44.724;11.284;2023-07-30T01:36:46;8.98;;;2.47;;
67508;SDS011;54354;44.724;11.284;2023-07-30T01:39:13;6.93;;;2.30;;
67508;SDS011;54354;44.724;11.284;2023-07-30T01:41:40;6.72;;;2.28;;
67508;SDS011;54354;44.724;11.284;2023-07-30T01:44:06;7.57;;;2.30;;
67508;SDS011;54354;44.724;11.284;2023-07-30T01:46:31;7.90;;;2.40;;
67508;SDS011;54354;44.724;11.284;2023-07-30T01:48:57;9.77;;;2.70;;
67508;SDS011;54354;44.724;11.284;2023-07-30T01:51:23;4.35;;;2.80;;
67508;SDS011;54354;44.724;11.284;2023-07-30T01:53:48;7.80;;;3.00;;
67508;SDS011;54354;44.724;11.284;2023-07-30T01:56:14;8.60;;;2.63;;
67508;SDS011;54354;44.724;11.284;2023-07-30T01:58:39;9.02;;;2.70;;
67508;SDS011;54354;44.724;11.284;2023-07-30T02:01:05;5.85;;;3.03;;
67508;SDS011;54354;44.724;11.284;2023-07-30T02:03:31;5.68;;;2.85;;
67508;SDS011;54354;44.724;11.284;2023-07-30T02:05:56;4.22;;;3.20;;
67508;SDS011;54354;44.724;11.284;2023-07-30T02:08:22;5.10;;;2.90;;
67508;SDS011;54354;44.724;11.284;2023-07-30T02:10:54;8.07;;;3.78;;
67508;SDS011;54354;44.724;11.284;2023-07-30T02:13:24;10.02;;;4.65;;
67508;SDS011;54354;44.724;11.284;2023-07-30T02:15:51;7.32;;;4.35;;
67508;SDS011;54354;44.724;11.284;2023-07-30T02:18:16;9.68;;;4.35;;
67508;SDS011;54354;44.724;11.284;2023-07-30T02:20:42;5.18;;;4.05;;
67508;SDS011;54354;44.724;11.284;2023-07-30T02:23:08;10.73;;;4.28;;
67508;SDS011;54354;44.724;11.284;2023-07-30T02:25:34;5.72;;;3.70;;
67508;SDS011;54354;44.724;11.284;2023-07-30T02:28:00;6.82;;;3.10;;
67508;SDS011;54354;44.724;11.284;2023-07-30T02:30:26;4.32;;;2.60;;
67508;SDS011;54354;44.724;11.284;2023-07-30T02:32:52;5.20;;;2.70;;
67508;SDS011;54354;44.724;11.284;2023-07-30T02:35:18;6.22;;;2.55;;
67508;SDS011;54354;44.724;11.284;2023-07-30T02:37:43;5.20;;;2.17;;
67508;SDS011;54354;44.724;11.284;2023-07-30T02:40:09;9.75;;;2.20;;
67508;SDS011;54354;44.724;11.284;2023-07-30T02:42:35;5.13;;;2.10;;
67508;SDS011;54354;44.724;11.284;2023-07-30T02:45:01;2.80;;;1.88;;
67508;SDS011;54354;44.724;11.284;2023-07-30T02:47:26;4.03;;;2.10;;
67508;SDS011;54354;44.724;11.284;2023-07-30T02:49:52;13.48;;;1.85;;
67508;SDS011;54354;44.724;11.284;2023-07-30T02:52:17;3.35;;;2.13;;
67508;SDS011;54354;44.724;11.284;2023-07-30T02:54:43;2.45;;;1.80;;
67508;SDS011;54354;44.724;11.284;2023-07-30T02:57:08;2.70;;;1.73;;
67508;SDS011;54354;44.724;11.284;2023-07-30T02:59:35;6.55;;;1.83;;
67508;SDS011;54354;44.724;11.284;2023-07-30T03:02:02;5.57;;;2.28;;
67508;SDS011;54354;44.724;11.284;2023-07-30T03:04:30;7.28;;;2.00;;
67508;SDS011;54354;44.724;11.284;2023-07-30T03:06:56;11.25;;;2.10;;
67508;SDS011;54354;44.724;11.284;2023-07-30T03:09:22;4.38;;;2.10;;
67508;SDS011;54354;44.724;11.284;2023-07-30T03:11:49;3.38;;;2.13;;
67508;SDS011;54354;44.724;11.284;2023-07-30T03:14:15;6.00;;;2.30;;
67508;SDS011;54354;44.724;11.284;2023-07-30T03:16:40;9.60;;;2.50;;
67508;SDS011;54354;44.724;11.284;2023-07-30T03:19:06;4.93;;;2.58;;
67508;SDS011;54354;44.724;11.284;2023-07-30T03:21:31;10.52;;;2.47;;
67508;SDS011;54354;44.724;11.284;2023-07-30T03:23:57;6.95;;;2.70;;
67508;SDS011;54354;44.724;11.284;2023-07-30T03:26:23;7.53;;;2.30;;
67508;SDS011;54354;44.724;11.284;2023-07-30T03:28:48;4.13;;;2.40;;
67508;SDS011;54354;44.724;11.284;2023-07-30T03:31:14;3.85;;;2.50;;
67508;SDS011;54354;44.724;11.284;2023-07-30T03:33:40;3.25;;;2.30;;
67508;SDS011;54354;44.724;11.284;2023-07-30T03:36:10;5.55;;;2.22;;
67508;SDS011;54354;44.724;11.284;2023-07-30T03:38:35;6.60;;;2.35;;
67508;SDS011;54354;44.724;11.284;2023-07-30T03:41:01;5.28;;;2.05;;
67508;SDS011;54354;44.724;11.284;2023-07-30T03:43:27;6.28;;;2.00;;
67508;SDS011;54354;44.724;11.284;2023-07-30T03:45:52;5.75;;;2.30;;
67508;SDS011;54354;44.724;11.284;2023-07-30T03:48:18;5.53;;;2.20;;
67508;SDS011;54354;44.724;11.284;2023-07-30T03:50:44;5.10;;;1.92;;
67508;SDS011;54354;44.724;11.284;2023-07-30T03:53:09;3.58;;;2.05;;
67508;SDS011;54354;44.724;11.284;2023-07-30T03:55:35;4.05;;;2.13;;
67508;SDS011;54354;44.724;11.284;2023-07-30T03:58:01;4.43;;;2.15;;
67508;SDS011;54354;44.724;11.284;2023-07-30T04:00:27;6.40;;;2.20;;
67508;SDS011;54354;44.724;11.284;2023-07-30T04:02:54;3.83;;;2.33;;
67508;SDS011;54354;44.724;11.284;2023-07-30T04:05:20;6.03;;;2.60;;
67508;SDS011;54354;44.724;11.284;2023-07-30T04:07:46;5.03;;;2.70;;
67508;SDS011;54354;44.724;11.284;2023-07-30T04:10:11;6.18;;;3.25;;
67508;SDS011;54354;44.724;11.284;2023-07-30T04:12:37;6.95;;;3.08;;
67508;SDS011;54354;44.724;11.284;2023-07-30T04:15:02;5.13;;;3.03;;
67508;SDS011;54354;44.724;11.284;2023-07-30T04:17:28;6.22;;;2.97;;
67508;SDS011;54354;44.724;11.284;2023-07-30T04:19:54;4.75;;;2.80;;
67508;SDS011;54354;44.724;11.284;2023-07-30T04:22:20;5.63;;;2.63;;
67508;SDS011;54354;44.724;11.284;2023-07-30T04:24:46;5.35;;;2.70;;
67508;SDS011;54354;44.724;11.284;2023-07-30T04:27:12;3.65;;;2.40;;
67508;SDS011;54354;44.724;11.284;2023-07-30T04:29:37;4.72;;;2.30;;
67508;SDS011;54354;44.724;11.284;2023-07-30T04:32:04;7.22;;;2.40;;
67508;SDS011;54354;44.724;11.284;2023-07-30T04:34:29;4.65;;;2.10;;
67508;SDS011;54354;44.724;11.284;2023-07-30T04:36:55;3.30;;;2.25;;
67508;SDS011;54354;44.724;11.284;2023-07-30T04:39:21;3.67;;;2.20;;
67508;SDS011;54354;44.724;11.284;2023-07-30T04:41:47;2.67;;;2.08;;
67508;SDS011;54354;44.724;11.284;2023-07-30T04:44:12;6.60;;;2.50;;
67508;SDS011;54354;44.724;11.284;2023-07-30T04:46:39;4.60;;;2.30;;
67508;SDS011;54354;44.724;11.284;2023-07-30T04:49:04;4.65;;;2.20;;
67508;SDS011;54354;44.724;11.284;2023-07-30T04:51:30;3.90;;;2.40;;
67508;SDS011;54354;44.724;11.284;2023-07-30T04:53:56;3.13;;;2.30;;
67508;SDS011;54354;44.724;11.284;2023-07-30T04:56:22;3.80;;;2.30;;
67508;SDS011;54354;44.724;11.284;2023-07-30T04:58:47;4.93;;;2.10;;
67508;SDS011;54354;44.724;11.284;2023-07-30T05:01:13;5.55;;;2.20;;
67508;SDS011;54354;44.724;11.284;2023-07-30T05:03:38;4.30;;;2.50;;
67508;SDS011;54354;44.724;11.284;2023-07-30T05:06:04;4.00;;;2.40;;
67508;SDS011;54354;44.724;11.284;2023-07-30T05:08:30;2.67;;;2.30;;
67508;SDS011;54354;44.724;11.284;2023-07-30T05:10:55;4.22;;;2.55;;
67508;SDS011;54354;44.724;11.284;2023-07-30T05:13:21;4.20;;;2.10;;
67508;SDS011;54354;44.724;11.284;2023-07-30T05:15:46;3.85;;;2.20;;
67508;SDS011;54354;44.724;11.284;2023-07-30T05:18:12;3.25;;;2.10;;
67508;SDS011;54354;44.724;11.284;2023-07-30T05:20:38;3.60;;;1.95;;
67508;SDS011;54354;44.724;11.284;2023-07-30T05:23:04;3.28;;;1.67;;
67508;SDS011;54354;44.724;11.284;2023-07-30T05:25:32;4.15;;;2.00;;
67508;SDS011;54354;44.724;11.284;2023-07-30T05:27:57;3.03;;;1.88;;
67508;SDS011;54354;44.724;11.284;2023-07-30T05:30:23;4.55;;;2.50;;
67508;SDS011;54354;44.724;11.284;2023-07-30T05:32:49;5.13;;;2.00;;
67508;SDS011;54354;44.724;11.284;2023-07-30T05:35:14;3.28;;;2.13;;
67508;SDS011;54354;44.724;11.284;2023-07-30T05:37:40;2.85;;;2.40;;
67508;SDS011;54354;44.724;11.284;2023-07-30T05:40:06;3.17;;;1.92;;
67508;SDS011;54354;44.724;11.284;2023-07-30T05:42:32;3.58;;;2.00;;
67508;SDS011;54354;44.724;11.284;2023-07-30T05:44:58;3.45;;;2.10;;
67508;SDS011;54354;44.724;11.284;2023-07-30T05:47:23;4.82;;;2.30;;
67508;SDS011;54354;44.724;11.284;2023-07-30T05:49:48;4.55;;;2.22;;
67508;SDS011;54354;44.724;11.284;2023-07-30T05:52:14;5.57;;;2.17;;
67508;SDS011;54354;44.724;11.284;2023-07-30T05:54:39;2.95;;;2.33;;
67508;SDS011;54354;44.724;11.284;2023-07-30T05:57:05;3.72;;;2.40;;
67508;SDS011;54354;44.724;11.284;2023-07-30T05:59:31;4.20;;;2.80;;
67508;SDS011;54354;44.724;11.284;2023-07-30T06:01:56;4.65;;;2.72;;
67508;SDS011;54354;44.724;11.284;2023-07-30T06:04:25;4.25;;;2.60;;
67508;SDS011;54354;44.724;11.284;2023-07-30T06:06:50;4.55;;;2.60;;
67508;SDS011;54354;44.724;11.284;2023-07-30T06:09:16;3.03;;;2.72;;
67508;SDS011;54354;44.724;11.284;2023-07-30T06:11:41;4.20;;;2.40;;
67508;SDS011;54354;44.724;11.284;2023-07-30T06:14:07;4.35;;;2.30;;
67508;SDS011;54354;44.724;11.284;2023-07-30T06:16:32;4.18;;;3.05;;
67508;SDS011;54354;44.724;11.284;2023-07-30T06:18:58;4.60;;;3.08;;
67508;SDS011;54354;44.724;11.284;2023-07-30T06:21:30;3.97;;;2.38;;
67508;SDS011;54354;44.724;11.284;2023-07-30T06:23:56;4.18;;;3.10;;
67508;SDS011;54354;44.724;11.284;2023-07-30T06:26:22;2.95;;;2.42;;
67508;SDS011;54354;44.724;11.284;2023-07-30T06:28:52;5.63;;;3.25;;
67508;SDS011;54354;44.724;11.284;2023-07-30T06:31:17;6.68;;;2.55;;
67508;SDS011;54354;44.724;11.284;2023-07-30T06:33:43;4.70;;;2.55;;
67508;SDS011;54354;44.724;11.284;2023-07-30T06:36:09;4.60;;;2.80;;
67508;SDS011;54354;44.724;11.284;2023-07-30T06:38:38;3.25;;;2.40;;
67508;SDS011;54354;44.724;11.284;2023-07-30T06:41:06;5.90;;;2.50;;
67508;SDS011;54354;44.724;11.284;2023-07-30T06:43:31;4.30;;;2.60;;
67508;SDS011;54354;44.724;11.284;2023-07-30T06:45:57;4.90;;;2.17;;
67508;SDS011;54354;44.724;11.284;2023-07-30T06:48:23;3.13;;;2.83;;
67508;SDS011;54354;44.724;11.284;2023-07-30T06:50:48;6.18;;;2.97;;
67508;SDS011;54354;44.724;11.284;2023-07-30T06:53:14;5.22;;;2.75;;
67508;SDS011;54354;44.724;11.284;2023-07-30T06:55:39;2.60;;;2.25;;
67508;SDS011;54354;44.724;11.284;2023-07-30T06:58:05;5.28;;;2.35;;
67508;SDS011;54354;44.724;11.284;2023-07-30T07:00:30;2.70;;;2.25;;
67508;SDS011;54354;44.724;11.284;2023-07-30T07:02:56;3.75;;;2.47;;
67508;SDS011;54354;44.724;11.284;2023-07-30T07:05:21;3.35;;;2.15;;
67508;SDS011;54354;44.724;11.284;2023-07-30T07:07:47;5.78;;;2.17;;
67508;SDS011;54354;44.724;11.284;2023-07-30T07:10:12;6.43;;;2.10;;
67508;SDS011;54354;44.724;11.284;2023-07-30T07:12:39;2.53;;;2.17;;
67508;SDS011;54354;44.724;11.284;2023-07-30T07:15:05;3.53;;;2.42;;
67508;SDS011;54354;44.724;11.284;2023-07-30T07:17:31;3.03;;;2.00;;
67508;SDS011;54354;44.724;11.284;2023-07-30T07:19:57;3.60;;;2.20;;
67508;SDS011;54354;44.724;11.284;2023-07-30T07:22:23;2.90;;;2.35;;
67508;SDS011;54354;44.724;11.284;2023-07-30T07:24:48;6.65;;;2.55;;
67508;SDS011;54354;44.724;11.284;2023-07-30T07:27:17;2.70;;;2.30;;
67508;SDS011;54354;44.724;11.284;2023-07-30T07:29:43;3.22;;;2.65;;
67508;SDS011;54354;44.724;11.284;2023-07-30T07:32:08;4.47;;;2.13;;
67508;SDS011;54354;44.724;11.284;2023-07-30T07:34:33;6.50;;;3.25;;
67508;SDS011;54354;44.724;11.284;2023-07-30T07:36:59;4.57;;;2.28;;
67508;SDS011;54354;44.724;11.284;2023-07-30T07:39:25;2.08;;;1.83;;
67508;SDS011;54354;44.724;11.284;2023-07-30T07:41:50;3.80;;;2.63;;
67508;SDS011;54354;44.724;11.284;2023-07-30T07:44:16;7.68;;;1.80;;
67508;SDS011;54354;44.724;11.284;2023-07-30T07:46:41;5.60;;;1.85;;
67508;SDS011;54354;44.724;11.284;2023-07-30T07:49:07;2.55;;;2.00;;
67508;SDS011;54354;44.724;11.284;2023-07-30T07:51:33;4.68;;;2.20;;
67508;SDS011;54354;44.724;11.284;2023-07-30T07:53:59;3.90;;;1.75;;
67508;SDS011;54354;44.724;11.284;2023-07-30T07:56:24;3.53;;;1.77;;
67508;SDS011;54354;44.724;11.284;2023-07-30T07:58:50;4.80;;;2.60;;
67508;SDS011;54354;44.724;11.284;2023-07-30T08:01:16;6.28;;;2.10;;
67508;SDS011;54354;44.724;11.284;2023-07-30T08:03:41;3.05;;;1.73;;
67508;SDS011;54354;44.724;11.284;2023-07-30T08:06:07;1.60;;;1.50;;
67508;SDS011;54354;44.724;11.284;2023-07-30T08:08:32;2.15;;;1.33;;
67508;SDS011;54354;44.724;11.284;2023-07-30T08:10:58;2.08;;;1.60;;
67508;SDS011;54354;44.724;11.284;2023-07-30T08:13:23;2.05;;;1.50;;
67508;SDS011;54354;44.724;11.284;2023-07-30T08:15:49;2.53;;;1.90;;
67508;SDS011;54354;44.724;11.284;2023-07-30T08:18:15;2.17;;;1.65;;
67508;SDS011;54354;44.724;11.284;2023-07-30T08:20:41;4.32;;;2.00;;
67508;SDS011;54354;44.724;11.284;2023-07-30T08:23:06;8.18;;;1.88;;
67508;SDS011;54354;44.724;11.284;2023-07-30T08:25:33;3.85;;;1.70;;
67508;SDS011;54354;44.724;11.284;2023-07-30T08:27:58;1.55;;;1.45;;
67508;SDS011;54354;44.724;11.284;2023-07-30T08:30:24;2.25;;;1.45;;
67508;SDS011;54354;44.724;11.284;2023-07-30T08:32:50;2.85;;;1.60;;
67508;SDS011;54354;44.724;11.284;2023-07-30T08:35:15;15.43;;;2.63;;
67508;SDS011;54354;44.724;11.284;2023-07-30T08:37:41;3.20;;;1.70;;
67508;SDS011;54354;44.724;11.284;2023-07-30T08:40:07;7.20;;;1.92;;
67508;SDS011;54354;44.724;11.284;2023-07-30T08:42:33;17.67;;;2.58;;
67508;SDS011;54354;44.724;11.284;2023-07-30T08:44:59;2.22;;;1.38;;
67508;SDS011;54354;44.724;11.284;2023-07-30T08:47:24;15.40;;;1.83;;
67508;SDS011;54354;44.724;11.284;2023-07-30T08:49:50;24.48;;;3.17;;
67508;SDS011;54354;44.724;11.284;2023-07-30T08:52:16;10.02;;;1.48;;
67508;SDS011;54354;44.724;11.284;2023-07-30T08:54:42;3.70;;;1.10;;
67508;SDS011;54354;44.724;11.284;2023-07-30T08:57:08;1.30;;;0.80;;
67508;SDS011;54354;44.724;11.284;2023-07-30T08:59:47;2.25;;;1.02;;
67508;SDS011;54354;44.724;11.284;2023-07-30T09:02:22;4.40;;;1.40;;
67508;SDS011;54354;44.724;11.284;2023-07-30T09:04:56;1.75;;;1.10;;
67508;SDS011;54354;44.724;11.284;2023-07-30T09:07:25;12.32;;;2.85;;
67508;SDS011;54354;44.724;11.284;2023-07-30T09:09:50;12.82;;;2.90;;
67508;SDS011;54354;44.724;11.284;2023-07-30T09:12:16;2.85;;;1.00;;
67508;SDS011;54354;44.724;11.284;2023-07-30T09:14:42;2.50;;;1.42;;
67508;SDS011;54354;44.724;11.284;2023-07-30T09:17:17;7.13;;;2.35;;
67508;SDS011;54354;44.724;11.284;2023-07-30T09:19:44;20.38;;;3.70;;
67508;SDS011;54354;44.724;11.284;2023-07-30T09:22:12;13.60;;;3.55;;
67508;SDS011;54354;44.724;11.284;2023-07-30T09:24:41;15.07;;;3.65;;
67508;SDS011;54354;44.724;11.284;2023-07-30T09:27:08;8.50;;;2.72;;
67508;SDS011;54354;44.724;11.284;2023-07-30T09:29:34;13.50;;;3.75;;
67508;SDS011;54354;44.724;11.284;2023-07-30T09:31:59;16.63;;;4.32;;
67508;SDS011;54354;44.724;11.284;2023-07-30T09:34:25;18.20;;;4.60;;
67508;SDS011;54354;44.724;11.284;2023-07-30T09:36:51;10.32;;;2.63;;
67508;SDS011;54354;44.724;11.284;2023-07-30T09:39:22;3.17;;;1.30;;
67508;SDS011;54354;44.724;11.284;2023-07-30T09:41:50;9.80;;;2.97;;
67508;SDS011;54354;44.724;11.284;2023-07-30T09:44:18;5.03;;;1.88;;
67508;SDS011;54354;44.724;11.284;2023-07-30T09:46:46;6.85;;;2.72;;
67508;SDS011;54354;44.724;11.284;2023-07-30T09:49:13;7.57;;;2.60;;
67508;SDS011;54354;44.724;11.284;2023-07-30T09:51:39;7.47;;;2.10;;
67508;SDS011;54354;44.724;11.284;2023-07-30T09:54:05;2.13;;;1.30;;
67508;SDS011;54354;44.724;11.284;2023-07-30T09:56:33;4.63;;;2.17;;
67508;SDS011;54354;44.724;11.284;2023-07-30T09:59:00;9.45;;;2.20;;
67508;SDS011;54354;44.724;11.284;2023-07-30T10:01:26;6.60;;;2.47;;
67508;SDS011;54354;44.724;11.284;2023-07-30T10:03:56;4.88;;;2.10;;
67508;SDS011;54354;44.724;11.284;2023-07-30T10:06:23;22.67;;;3.63;;
67508;SDS011;54354;44.724;11.284;2023-07-30T10:08:54;15.25;;;3.42;;
67508;SDS011;54354;44.724;11.284;2023-07-30T10:11:23;7.03;;;2.30;;
67508;SDS011;54354;44.724;11.284;2023-07-30T10:13:49;6.68;;;2.30;;
67508;SDS011;54354;44.724;11.284;2023-07-30T10:16:15;5.78;;;2.33;;
67508;SDS011;54354;44.724;11.284;2023-07-30T10:18:41;2.92;;;1.50;;
67508;SDS011;54354;44.724;11.284;2023-07-30T10:21:08;3.03;;;1.85;;
67508;SDS011;54354;44.724;11.284;2023-07-30T10:23:35;2.90;;;1.55;;
67508;SDS011;54354;44.724;11.284;2023-07-30T10:26:10;3.97;;;2.17;;
67508;SDS011;54354;44.724;11.284;2023-07-30T10:28:36;3.78;;;1.70;;
67508;SDS011;54354;44.724;11.284;2023-07-30T10:31:07;2.63;;;1.92;;
67508;SDS011;54354;44.724;11.284;2023-07-30T10:33:43;5.63;;;2.13;;
67508;SDS011;54354;44.724;11.284;2023-07-30T10:37:02;4.53;;;1.60;;
67508;SDS011;54354;44.724;11.284;2023-07-30T10:39:12;7.65;;;2.88;;
67508;SDS011;54354;44.724;11.284;2023-07-30T10:41:40;3.45;;;2.25;;
67508;SDS011;54354;44.724;11.284;2023-07-30T10:44:05;2.40;;;2.13;;
67508;SDS011;54354;44.724;11.284;2023-07-30T10:46:31;7.18;;;2.00;;
67508;SDS011;54354;44.724;11.284;2023-07-30T10:48:57;3.55;;;2.17;;
67508;SDS011;54354;44.724;11.284;2023-07-30T10:51:22;4.13;;;1.52;;
67508;SDS011;54354;44.724;11.284;2023-07-30T10:53:49;2.30;;;1.45;;
67508;SDS011;54354;44.724;11.284;2023-07-30T10:56:21;4.80;;;1.67;;
67508;SDS011;54354;44.724;11.284;2023-07-30T10:58:52;4.93;;;1.73;;
67508;SDS011;54354;44.724;11.284;2023-07-30T11:01:18;4.13;;;1.60;;
67508;SDS011;54354;44.724;11.284;2023-07-30T11:03:48;3.35;;;2.17;;
67508;SDS011;54354;44.724;11.284;2023-07-30T11:06:20;7.53;;;2.20;;
67508;SDS011;54354;44.724;11.284;2023-07-30T11:08:47;8.23;;;1.92;;
67508;SDS011;54354;44.724;11.284;2023-07-30T11:11:12;76.28;;;6.57;;
67508;SDS011;54354;44.724;11.284;2023-07-30T11:13:39;27.13;;;3.83;;
67508;SDS011;54354;44.724;11.284;2023-07-30T11:16:06;6.05;;;2.13;;
67508;SDS011;54354;44.724;11.284;2023-07-30T11:18:33;8.05;;;2.47;;
67508;SDS011;54354;44.724;11.284;2023-07-30T11:21:03;22.35;;;3.63;;
67508;SDS011;54354;44.724;11.284;2023-07-30T11:23:28;11.27;;;2.65;;
67508;SDS011;54354;44.724;11.284;2023-07-30T11:25:54;16.45;;;2.95;;
67508;SDS011;54354;44.724;11.284;2023-07-30T11:30:59;14.73;;;2.95;;
67508;SDS011;54354;44.724;11.284;2023-07-30T11:33:27;3.28;;;1.50;;
67508;SDS011;54354;44.724;11.284;2023-07-30T11:35:56;5.53;;;2.20;;
67508;SDS011;54354;44.724;11.284;2023-07-30T11:38:23;8.18;;;2.55;;
67508;SDS011;54354;44.724;11.284;2023-07-30T11:40:50;6.07;;;2.50;;
67508;SDS011;54354;44.724;11.284;2023-07-30T11:43:18;5.32;;;3.00;;
67508;SDS011;54354;44.724;11.284;2023-07-30T11:45:44;3.88;;;1.77;;
67508;SDS011;54354;44.724;11.284;2023-07-30T11:48:10;3.00;;;1.75;;
67508;SDS011;54354;44.724;11.284;2023-07-30T11:50:46;3.80;;;2.00;;
67508;SDS011;54354;44.724;11.284;2023-07-30T11:53:18;2.90;;;2.13;;
67508;SDS011;54354;44.724;11.284;2023-07-30T11:55:44;7.18;;;2.85;;
67508;SDS011;54354;44.724;11.284;2023-07-30T11:58:11;6.10;;;2.35;;
67508;SDS011;54354;44.724;11.284;2023-07-30T12:00:38;20.60;;;3.85;;
67508;SDS011;54354;44.724;11.284;2023-07-30T12:03:05;44.28;;;4.47;;
67508;SDS011;54354;44.724;11.284;2023-07-30T12:05:33;202.90;;;13.60;;
67508;SDS011;54354;44.724;11.284;2023-07-30T12:08:02;99.60;;;7.80;;
67508;SDS011;54354;44.724;11.284;2023-07-30T12:10:45;96.75;;;8.00;;
67508;SDS011;54354;44.724;11.284;2023-07-30T12:13:16;57.92;;;6.72;;
67508;SDS011;54354;44.724;11.284;2023-07-30T12:18:09;4.47;;;1.85;;
67508;SDS011;54354;44.724;11.284;2023-07-30T12:20:34;40.53;;;5.40;;
67508;SDS011;54354;44.724;11.284;2023-07-30T12:23:01;22.98;;;3.92;;
67508;SDS011;54354;44.724;11.284;2023-07-30T12:25:26;23.42;;;3.70;;
67508;SDS011;54354;44.724;11.284;2023-07-30T12:27:52;12.30;;;2.65;;
67508;SDS011;54354;44.724;11.284;2023-07-30T12:30:17;22.85;;;4.30;;
67508;SDS011;54354;44.724;11.284;2023-07-30T12:32:43;21.98;;;4.38;;
67508;SDS011;54354;44.724;11.284;2023-07-30T12:35:08;13.02;;;3.20;;
67508;SDS011;54354;44.724;11.284;2023-07-30T12:37:34;9.98;;;3.25;;
67508;SDS011;54354;44.724;11.284;2023-07-30T12:40:00;8.55;;;2.88;;
67508;SDS011;54354;44.724;11.284;2023-07-30T12:42:26;6.28;;;2.80;;
67508;SDS011;54354;44.724;11.284;2023-07-30T12:44:51;2.75;;;1.92;;
67508;SDS011;54354;44.724;11.284;2023-07-30T12:47:17;6.10;;;2.58;;
67508;SDS011;54354;44.724;11.284;2023-07-30T12:49:42;7.40;;;2.47;;
67508;SDS011;54354;44.724;11.284;2023-07-30T12:52:08;7.60;;;2.55;;
67508;SDS011;54354;44.724;11.284;2023-07-30T12:54:33;2.58;;;1.70;;
67508;SDS011;54354;44.724;11.284;2023-07-30T12:56:59;6.88;;;2.90;;
67508;SDS011;54354;44.724;11.284;2023-07-30T12:59:24;7.65;;;2.35;;
67508;SDS011;54354;44.724;11.284;2023-07-30T13:01:50;5.63;;;2.63;;
67508;SDS011;54354;44.724;11.284;2023-07-30T13:04:15;2.25;;;1.88;;
67508;SDS011;54354;44.724;11.284;2023-07-30T13:06:42;3.58;;;3.00;;
67508;SDS011;54354;44.724;11.284;2023-07-30T13:09:07;2.78;;;2.17;;
67508;SDS011;54354;44.724;11.284;2023-07-30T13:11:33;18.67;;;3.47;;
67508;SDS011;54354;44.724;11.284;2023-07-30T13:13:58;105.93;;;7.05;;
67508;SDS011;54354;44.724;11.284;2023-07-30T13:16:24;55.08;;;5.00;;
67508;SDS011;54354;44.724;11.284;2023-07-30T13:18:49;19.13;;;3.25;;
67508;SDS011;54354;44.724;11.284;2023-07-30T13:21:15;7.90;;;2.42;;
67508;SDS011;54354;44.724;11.284;2023-07-30T13:23:40;11.38;;;2.97;;
67508;SDS011;54354;44.724;11.284;2023-07-30T13:26:06;10.73;;;2.88;;
67508;SDS011;54354;44.724;11.284;2023-07-30T13:28:31;7.68;;;2.72;;
67508;SDS011;54354;44.724;11.284;2023-07-30T13:30:57;7.47;;;2.35;;
67508;SDS011;54354;44.724;11.284;2023-07-30T13:33:22;5.57;;;2.28;;
67508;SDS011;54354;44.724;11.284;2023-07-30T13:35:48;5.88;;;2.50;;
67508;SDS011;54354;44.724;11.284;2023-07-30T13:38:13;3.40;;;1.88;;
67508;SDS011;54354;44.724;11.284;2023-07-30T13:40:39;4.45;;;2.17;;
67508;SDS011;54354;44.724;11.284;2023-07-30T13:43:04;4.28;;;2.33;;
67508;SDS011;54354;44.724;11.284;2023-07-30T13:45:30;3.88;;;2.30;;
67508;SDS011;54354;44.724;11.284;2023-07-30T13:47:56;4.43;;;2.80;;
67508;SDS011;54354;44.724;11.284;2023-07-30T13:50:21;6.63;;;2.70;;
67508;SDS011;54354;44.724;11.284;2023-07-30T13:52:47;6.45;;;2.80;;
67508;SDS011;54354;44.724;11.284;2023-07-30T13:55:12;9.25;;;2.90;;
67508;SDS011;54354;44.724;11.284;2023-07-30T13:57:38;7.63;;;2.60;;
67508;SDS011;54354;44.724;11.284;2023-07-30T14:00:04;5.78;;;2.35;;
67508;SDS011;54354;44.724;11.284;2023-07-30T14:02:31;12.85;;;3.55;;
67508;SDS011;54354;44.724;11.284;2023-07-30T14:04:56;11.57;;;3.10;;
67508;SDS011;54354;44.724;11.284;2023-07-30T14:07:22;8.10;;;3.33;;
67508;SDS011;54354;44.724;11.284;2023-07-30T14:09:47;9.88;;;3.10;;
67508;SDS011;54354;44.724;11.284;2023-07-30T14:12:13;8.50;;;2.38;;
67508;SDS011;54354;44.724;11.284;2023-07-30T14:14:38;8.43;;;3.00;;
67508;SDS011;54354;44.724;11.284;2023-07-30T14:17:04;6.32;;;3.17;;
67508;SDS011;54354;44.724;11.284;2023-07-30T14:19:32;4.63;;;2.10;;
67508;SDS011;54354;44.724;11.284;2023-07-30T14:21:58;4.90;;;2.85;;
67508;SDS011;54354;44.724;11.284;2023-07-30T14:24:23;3.72;;;2.88;;
67508;SDS011;54354;44.724;11.284;2023-07-30T14:26:49;7.38;;;2.92;;
67508;SDS011;54354;44.724;11.284;2023-07-30T14:29:15;5.32;;;2.92;;
67508;SDS011;54354;44.724;11.284;2023-07-30T14:31:40;6.35;;;3.13;;
67508;SDS011;54354;44.724;11.284;2023-07-30T14:34:06;5.82;;;3.05;;
67508;SDS011;54354;44.724;11.284;2023-07-30T14:36:31;12.25;;;3.30;;